sensor_id;sensor_type;location;lat;lon;timestamp;P1;durP1;ratioP1;P2;durP2;ratioP2
23222;SDS011;11780;13.904;100.620;2024-01-07T00:02:13;32.03;;;23.08;;
23222;SDS011;11780;13.904;100.620;2024-01-07T00:04:43;30.33;;;23.02;;
23222;SDS011;11780;13.904;100.620;2024-01-07T00:07:14;30.13;;;22.02;;
23222;SDS011;11780;13.904;100.620;2024-01-07T00:09:44;35.88;;;23.02;;
23222;SDS011;11780;13.904;100.620;2024-01-07T00:12:15;34.25;;;25.08;;
23222;SDS011;11780;13.904;100.620;2024-01-07T00:14:46;32.25;;;23.92;;
23222;SDS011;11780;13.904;100.620;2024-01-07T00:17:16;35.30;;;25.92;;
23222;SDS011;11780;13.904;100.620;2024-01-07T00:19:47;34.05;;;24.95;;
23222;SDS011;11780;13.904;100.620;2024-01-07T00:22:17;31.58;;;25.52;;
23222;SDS011;11780;13.904;100.620;2024-01-07T00:24:48;35.10;;;25.65;;
23222;SDS011;11780;13.904;100.620;2024-01-07T00:27:18;35.45;;;26.00;;
23222;SDS011;11780;13.904;100.620;2024-01-07T00:29:49;36.03;;;26.98;;
23222;SDS011;11780;13.904;100.620;2024-01-07T00:32:19;39.65;;;29.50;;
23222;SDS011;11780;13.904;100.620;2024-01-07T00:34:49;41.95;;;28.70;;
23222;SDS011;11780;13.904;100.620;2024-01-07T00:37:22;36.25;;;26.65;;
23222;SDS011;11780;13.904;100.620;2024-01-07T00:39:52;35.72;;;26.65;;
23222;SDS011;11780;13.904;100.620;2024-01-07T00:42:23;37.70;;;27.77;;
23222;SDS011;11780;13.904;100.620;2024-01-07T00:44:54;40.88;;;28.65;;
23222;SDS011;11780;13.904;100.620;2024-01-07T00:47:24;40.65;;;28.45;;
23222;SDS011;11780;13.904;100.620;2024-01-07T00:49:55;39.58;;;30.02;;
23222;SDS011;11780;13.904;100.620;2024-01-07T00:52:26;43.55;;;32.63;;
23222;SDS011;11780;13.904;100.620;2024-01-07T00:54:56;42.70;;;32.42;;
23222;SDS011;11780;13.904;100.620;2024-01-07T00:57:27;38.95;;;29.85;;
23222;SDS011;11780;13.904;100.620;2024-01-07T00:59:58;40.88;;;27.17;;
23222;SDS011;11780;13.904;100.620;2024-01-07T01:02:29;37.17;;;26.50;;
23222;SDS011;11780;13.904;100.620;2024-01-07T01:05:00;32.67;;;23.63;;
23222;SDS011;11780;13.904;100.620;2024-01-07T01:07:30;29.95;;;23.67;;
23222;SDS011;11780;13.904;100.620;2024-01-07T01:10:01;31.13;;;23.20;;
23222;SDS011;11780;13.904;100.620;2024-01-07T01:12:32;32.77;;;22.50;;
23222;SDS011;11780;13.904;100.620;2024-01-07T01:15:02;31.40;;;22.98;;
23222;SDS011;11780;13.904;100.620;2024-01-07T01:17:33;28.33;;;21.53;;
23222;SDS011;11780;13.904;100.620;2024-01-07T01:20:04;30.08;;;22.25;;
23222;SDS011;11780;13.904;100.620;2024-01-07T01:22:36;30.90;;;20.52;;
23222;SDS011;11780;13.904;100.620;2024-01-07T01:25:07;30.00;;;19.73;;
23222;SDS011;11780;13.904;100.620;2024-01-07T01:27:37;24.03;;;19.43;;
23222;SDS011;11780;13.904;100.620;2024-01-07T01:30:08;35.70;;;21.15;;
23222;SDS011;11780;13.904;100.620;2024-01-07T01:32:39;37.05;;;25.48;;
23222;SDS011;11780;13.904;100.620;2024-01-07T01:35:11;32.83;;;23.10;;
23222;SDS011;11780;13.904;100.620;2024-01-07T01:37:42;29.13;;;22.70;;
23222;SDS011;11780;13.904;100.620;2024-01-07T01:40:12;29.55;;;20.80;;
23222;SDS011;11780;13.904;100.620;2024-01-07T01:42:43;35.33;;;22.17;;
23222;SDS011;11780;13.904;100.620;2024-01-07T01:45:14;28.77;;;21.63;;
23222;SDS011;11780;13.904;100.620;2024-01-07T01:47:45;31.55;;;20.52;;
23222;SDS011;11780;13.904;100.620;2024-01-07T01:52:47;32.63;;;21.95;;
23222;SDS011;11780;13.904;100.620;2024-01-07T02:02:52;31.17;;;21.15;;
23222;SDS011;11780;13.904;100.620;2024-01-07T02:05:23;29.40;;;22.20;;
23222;SDS011;11780;13.904;100.620;2024-01-07T02:07:54;26.70;;;20.88;;
23222;SDS011;11780;13.904;100.620;2024-01-07T02:10:26;31.48;;;20.92;;
23222;SDS011;11780;13.904;100.620;2024-01-07T02:12:58;34.17;;;22.08;;
23222;SDS011;11780;13.904;100.620;2024-01-07T02:15:29;32.57;;;21.00;;
23222;SDS011;11780;13.904;100.620;2024-01-07T02:20:30;36.50;;;23.00;;
23222;SDS011;11780;13.904;100.620;2024-01-07T02:23:01;37.00;;;25.63;;
23222;SDS011;11780;13.904;100.620;2024-01-07T02:25:36;35.00;;;24.23;;
23222;SDS011;11780;13.904;100.620;2024-01-07T02:28:06;32.53;;;23.73;;
23222;SDS011;11780;13.904;100.620;2024-01-07T02:30:37;35.40;;;23.40;;
23222;SDS011;11780;13.904;100.620;2024-01-07T02:33:08;36.35;;;20.95;;
23222;SDS011;11780;13.904;100.620;2024-01-07T02:35:39;28.33;;;21.25;;
23222;SDS011;11780;13.904;100.620;2024-01-07T02:38:09;30.60;;;21.30;;
23222;SDS011;11780;13.904;100.620;2024-01-07T02:40:40;29.37;;;20.30;;
23222;SDS011;11780;13.904;100.620;2024-01-07T02:43:11;29.60;;;21.42;;
23222;SDS011;11780;13.904;100.620;2024-01-07T02:58:21;26.52;;;20.05;;
23222;SDS011;11780;13.904;100.620;2024-01-07T03:00:51;23.27;;;17.97;;
23222;SDS011;11780;13.904;100.620;2024-01-07T03:03:22;28.77;;;20.03;;
23222;SDS011;11780;13.904;100.620;2024-01-07T03:05:52;21.57;;;17.73;;
23222;SDS011;11780;13.904;100.620;2024-01-07T03:08:23;23.33;;;17.97;;
23222;SDS011;11780;13.904;100.620;2024-01-07T03:10:53;30.87;;;18.80;;
23222;SDS011;11780;13.904;100.620;2024-01-07T03:13:24;27.83;;;17.33;;
23222;SDS011;11780;13.904;100.620;2024-01-07T03:15:54;22.90;;;15.77;;
23222;SDS011;11780;13.904;100.620;2024-01-07T03:18:26;24.40;;;16.05;;
23222;SDS011;11780;13.904;100.620;2024-01-07T03:20:58;22.23;;;16.42;;
23222;SDS011;11780;13.904;100.620;2024-01-07T03:23:29;23.58;;;16.73;;
23222;SDS011;11780;13.904;100.620;2024-01-07T03:25:59;28.07;;;18.70;;
23222;SDS011;11780;13.904;100.620;2024-01-07T03:28:30;26.50;;;19.42;;
23222;SDS011;11780;13.904;100.620;2024-01-07T03:31:03;22.02;;;16.73;;
23222;SDS011;11780;13.904;100.620;2024-01-07T03:33:38;23.15;;;16.98;;
23222;SDS011;11780;13.904;100.620;2024-01-07T03:36:11;24.58;;;16.70;;
23222;SDS011;11780;13.904;100.620;2024-01-07T03:38:43;20.77;;;15.90;;
23222;SDS011;11780;13.904;100.620;2024-01-07T03:41:17;26.00;;;16.67;;
23222;SDS011;11780;13.904;100.620;2024-01-07T03:46:02;26.17;;;16.80;;
23222;SDS011;11780;13.904;100.620;2024-01-07T03:48:33;25.47;;;16.83;;
23222;SDS011;11780;13.904;100.620;2024-01-07T03:51:03;26.23;;;16.97;;
23222;SDS011;11780;13.904;100.620;2024-01-07T03:53:34;26.42;;;16.92;;
23222;SDS011;11780;13.904;100.620;2024-01-07T03:56:04;28.35;;;17.20;;
23222;SDS011;11780;13.904;100.620;2024-01-07T03:58:35;21.90;;;16.60;;
23222;SDS011;11780;13.904;100.620;2024-01-07T04:01:06;20.70;;;15.67;;
23222;SDS011;11780;13.904;100.620;2024-01-07T04:03:37;23.17;;;15.50;;
23222;SDS011;11780;13.904;100.620;2024-01-07T04:08:38;26.83;;;17.65;;
23222;SDS011;11780;13.904;100.620;2024-01-07T04:11:08;23.25;;;16.13;;
23222;SDS011;11780;13.904;100.620;2024-01-07T04:13:39;23.97;;;14.97;;
23222;SDS011;11780;13.904;100.620;2024-01-07T04:16:16;23.15;;;15.95;;
23222;SDS011;11780;13.904;100.620;2024-01-07T04:18:49;24.83;;;15.57;;
23222;SDS011;11780;13.904;100.620;2024-01-07T04:21:20;21.15;;;14.25;;
23222;SDS011;11780;13.904;100.620;2024-01-07T04:23:51;21.07;;;13.37;;
23222;SDS011;11780;13.904;100.620;2024-01-07T04:26:21;22.97;;;13.90;;
23222;SDS011;11780;13.904;100.620;2024-01-07T04:28:52;22.48;;;15.13;;
23222;SDS011;11780;13.904;100.620;2024-01-07T04:31:22;23.95;;;13.50;;
23222;SDS011;11780;13.904;100.620;2024-01-07T04:33:53;31.20;;;14.75;;
23222;SDS011;11780;13.904;100.620;2024-01-07T04:36:23;24.90;;;14.80;;
23222;SDS011;11780;13.904;100.620;2024-01-07T04:38:53;19.77;;;14.00;;
23222;SDS011;11780;13.904;100.620;2024-01-07T04:41:24;16.05;;;13.45;;
23222;SDS011;11780;13.904;100.620;2024-01-07T04:43:54;19.13;;;12.93;;
23222;SDS011;11780;13.904;100.620;2024-01-07T04:46:25;17.92;;;13.57;;
23222;SDS011;11780;13.904;100.620;2024-01-07T04:48:55;18.23;;;13.63;;
23222;SDS011;11780;13.904;100.620;2024-01-07T04:51:27;18.67;;;13.77;;
23222;SDS011;11780;13.904;100.620;2024-01-07T04:53:57;18.80;;;12.67;;
23222;SDS011;11780;13.904;100.620;2024-01-07T04:56:28;19.00;;;12.37;;
23222;SDS011;11780;13.904;100.620;2024-01-07T04:58:58;18.13;;;12.20;;
23222;SDS011;11780;13.904;100.620;2024-01-07T05:01:31;14.73;;;11.77;;
23222;SDS011;11780;13.904;100.620;2024-01-07T05:04:03;16.38;;;13.20;;
23222;SDS011;11780;13.904;100.620;2024-01-07T05:06:34;16.00;;;12.57;;
23222;SDS011;11780;13.904;100.620;2024-01-07T05:09:04;19.65;;;14.30;;
23222;SDS011;11780;13.904;100.620;2024-01-07T05:11:38;19.70;;;13.07;;
23222;SDS011;11780;13.904;100.620;2024-01-07T05:14:10;16.90;;;12.50;;
23222;SDS011;11780;13.904;100.620;2024-01-07T05:16:41;19.70;;;12.93;;
23222;SDS011;11780;13.904;100.620;2024-01-07T05:19:11;16.23;;;12.10;;
23222;SDS011;11780;13.904;100.620;2024-01-07T05:25:07;18.55;;;12.60;;
23222;SDS011;11780;13.904;100.620;2024-01-07T05:27:38;14.95;;;11.98;;
23222;SDS011;11780;13.904;100.620;2024-01-07T05:30:09;18.15;;;12.18;;
23222;SDS011;11780;13.904;100.620;2024-01-07T05:32:40;16.80;;;11.82;;
23222;SDS011;11780;13.904;100.620;2024-01-07T05:35:11;17.47;;;11.83;;
23222;SDS011;11780;13.904;100.620;2024-01-07T05:37:42;19.57;;;12.80;;
23222;SDS011;11780;13.904;100.620;2024-01-07T05:40:12;16.17;;;12.25;;
23222;SDS011;11780;13.904;100.620;2024-01-07T05:42:43;22.77;;;13.00;;
23222;SDS011;11780;13.904;100.620;2024-01-07T05:45:13;15.97;;;12.27;;
23222;SDS011;11780;13.904;100.620;2024-01-07T05:47:44;15.68;;;11.68;;
23222;SDS011;11780;13.904;100.620;2024-01-07T05:50:16;15.38;;;12.15;;
23222;SDS011;11780;13.904;100.620;2024-01-07T05:52:48;16.17;;;11.60;;
23222;SDS011;11780;13.904;100.620;2024-01-07T05:55:18;15.07;;;12.13;;
23222;SDS011;11780;13.904;100.620;2024-01-07T05:57:49;15.95;;;11.80;;
23222;SDS011;11780;13.904;100.620;2024-01-07T06:00:19;14.87;;;12.47;;
23222;SDS011;11780;13.904;100.620;2024-01-07T06:02:50;16.67;;;11.33;;
23222;SDS011;11780;13.904;100.620;2024-01-07T06:05:20;19.23;;;12.73;;
23222;SDS011;11780;13.904;100.620;2024-01-07T06:07:50;17.97;;;13.10;;
23222;SDS011;11780;13.904;100.620;2024-01-07T06:10:21;20.43;;;12.77;;
23222;SDS011;11780;13.904;100.620;2024-01-07T06:12:52;17.40;;;11.33;;
23222;SDS011;11780;13.904;100.620;2024-01-07T06:15:22;15.50;;;11.70;;
23222;SDS011;11780;13.904;100.620;2024-01-07T06:17:53;14.15;;;12.10;;
23222;SDS011;11780;13.904;100.620;2024-01-07T06:20:23;14.43;;;11.77;;
23222;SDS011;11780;13.904;100.620;2024-01-07T06:22:54;15.02;;;12.25;;
23222;SDS011;11780;13.904;100.620;2024-01-07T06:25:24;19.50;;;11.47;;
23222;SDS011;11780;13.904;100.620;2024-01-07T06:27:55;14.68;;;11.48;;
23222;SDS011;11780;13.904;100.620;2024-01-07T06:30:26;16.90;;;11.70;;
23222;SDS011;11780;13.904;100.620;2024-01-07T06:32:56;12.87;;;11.23;;
23222;SDS011;11780;13.904;100.620;2024-01-07T06:35:28;17.02;;;12.27;;
23222;SDS011;11780;13.904;100.620;2024-01-07T06:37:58;13.38;;;11.90;;
23222;SDS011;11780;13.904;100.620;2024-01-07T06:40:29;14.60;;;12.27;;
23222;SDS011;11780;13.904;100.620;2024-01-07T06:42:59;14.40;;;11.30;;
23222;SDS011;11780;13.904;100.620;2024-01-07T06:45:30;16.70;;;11.93;;
23222;SDS011;11780;13.904;100.620;2024-01-07T06:48:02;15.50;;;12.32;;
23222;SDS011;11780;13.904;100.620;2024-01-07T06:50:34;20.40;;;12.25;;
23222;SDS011;11780;13.904;100.620;2024-01-07T06:55:35;13.63;;;11.70;;
23222;SDS011;11780;13.904;100.620;2024-01-07T06:58:06;16.35;;;12.20;;
23222;SDS011;11780;13.904;100.620;2024-01-07T07:00:37;15.95;;;12.30;;
23222;SDS011;11780;13.904;100.620;2024-01-07T07:03:07;19.38;;;12.45;;
23222;SDS011;11780;13.904;100.620;2024-01-07T07:05:38;15.23;;;12.33;;
23222;SDS011;11780;13.904;100.620;2024-01-07T07:08:09;16.67;;;11.67;;
23222;SDS011;11780;13.904;100.620;2024-01-07T07:10:39;16.93;;;12.00;;
23222;SDS011;11780;13.904;100.620;2024-01-07T07:13:10;13.40;;;11.43;;
23222;SDS011;11780;13.904;100.620;2024-01-07T07:15:42;15.32;;;12.45;;
23222;SDS011;11780;13.904;100.620;2024-01-07T07:18:12;16.87;;;11.93;;
23222;SDS011;11780;13.904;100.620;2024-01-07T07:20:43;15.88;;;11.93;;
23222;SDS011;11780;13.904;100.620;2024-01-07T07:23:13;19.37;;;11.83;;
23222;SDS011;11780;13.904;100.620;2024-01-07T07:25:44;13.43;;;11.93;;
23222;SDS011;11780;13.904;100.620;2024-01-07T07:28:15;14.45;;;12.35;;
23222;SDS011;11780;13.904;100.620;2024-01-07T07:33:18;17.98;;;12.07;;
23222;SDS011;11780;13.904;100.620;2024-01-07T07:35:49;17.17;;;12.90;;
23222;SDS011;11780;13.904;100.620;2024-01-07T07:38:19;19.77;;;13.00;;
23222;SDS011;11780;13.904;100.620;2024-01-07T07:40:50;15.15;;;12.70;;
23222;SDS011;11780;13.904;100.620;2024-01-07T07:43:22;17.95;;;12.70;;
23222;SDS011;11780;13.904;100.620;2024-01-07T07:45:54;20.45;;;12.77;;
23222;SDS011;11780;13.904;100.620;2024-01-07T07:48:24;15.63;;;11.60;;
23222;SDS011;11780;13.904;100.620;2024-01-07T07:50:56;17.60;;;11.93;;
23222;SDS011;11780;13.904;100.620;2024-01-07T07:53:26;20.00;;;12.37;;
23222;SDS011;11780;13.904;100.620;2024-01-07T07:55:57;20.60;;;12.67;;
23222;SDS011;11780;13.904;100.620;2024-01-07T07:58:27;18.95;;;12.57;;
23222;SDS011;11780;13.904;100.620;2024-01-07T08:00:57;17.08;;;11.82;;
23222;SDS011;11780;13.904;100.620;2024-01-07T08:03:28;19.75;;;12.13;;
23222;SDS011;11780;13.904;100.620;2024-01-07T08:06:00;20.48;;;12.55;;
23222;SDS011;11780;13.904;100.620;2024-01-07T08:08:30;17.97;;;11.60;;
23222;SDS011;11780;13.904;100.620;2024-01-07T08:11:01;17.27;;;11.90;;
23222;SDS011;11780;13.904;100.620;2024-01-07T08:13:32;19.40;;;12.82;;
23222;SDS011;11780;13.904;100.620;2024-01-07T08:16:04;20.70;;;13.43;;
23222;SDS011;11780;13.904;100.620;2024-01-07T08:18:35;24.75;;;14.68;;
23222;SDS011;11780;13.904;100.620;2024-01-07T08:21:06;23.93;;;16.30;;
23222;SDS011;11780;13.904;100.620;2024-01-07T08:23:36;31.13;;;17.93;;
23222;SDS011;11780;13.904;100.620;2024-01-07T08:26:07;32.90;;;16.37;;
23222;SDS011;11780;13.904;100.620;2024-01-07T08:28:37;27.07;;;16.43;;
23222;SDS011;11780;13.904;100.620;2024-01-07T08:31:07;25.42;;;16.65;;
23222;SDS011;11780;13.904;100.620;2024-01-07T08:33:38;28.30;;;17.05;;
23222;SDS011;11780;13.904;100.620;2024-01-07T08:36:09;26.83;;;16.67;;
23222;SDS011;11780;13.904;100.620;2024-01-07T08:38:39;25.77;;;16.60;;
23222;SDS011;11780;13.904;100.620;2024-01-07T08:41:10;25.52;;;15.57;;
23222;SDS011;11780;13.904;100.620;2024-01-07T08:43:41;30.42;;;17.05;;
23222;SDS011;11780;13.904;100.620;2024-01-07T08:46:11;32.20;;;17.17;;
23222;SDS011;11780;13.904;100.620;2024-01-07T08:48:43;27.15;;;16.48;;
23222;SDS011;11780;13.904;100.620;2024-01-07T08:51:14;26.60;;;15.43;;
23222;SDS011;11780;13.904;100.620;2024-01-07T08:53:45;24.23;;;16.20;;
23222;SDS011;11780;13.904;100.620;2024-01-07T08:56:16;22.98;;;14.85;;
23222;SDS011;11780;13.904;100.620;2024-01-07T08:58:46;21.48;;;14.55;;
23222;SDS011;11780;13.904;100.620;2024-01-07T09:01:17;17.77;;;13.63;;
23222;SDS011;11780;13.904;100.620;2024-01-07T09:03:47;19.10;;;12.70;;
23222;SDS011;11780;13.904;100.620;2024-01-07T09:06:18;19.73;;;12.83;;
23222;SDS011;11780;13.904;100.620;2024-01-07T09:08:48;16.87;;;12.77;;
23222;SDS011;11780;13.904;100.620;2024-01-07T09:11:19;17.77;;;13.98;;
23222;SDS011;11780;13.904;100.620;2024-01-07T09:13:49;19.02;;;12.75;;
23222;SDS011;11780;13.904;100.620;2024-01-07T09:16:20;20.10;;;12.70;;
23222;SDS011;11780;13.904;100.620;2024-01-07T09:18:51;19.57;;;12.23;;
23222;SDS011;11780;13.904;100.620;2024-01-07T09:21:21;28.33;;;13.87;;
23222;SDS011;11780;13.904;100.620;2024-01-07T09:23:55;27.88;;;16.20;;
23222;SDS011;11780;13.904;100.620;2024-01-07T09:26:27;21.25;;;14.48;;
23222;SDS011;11780;13.904;100.620;2024-01-07T09:28:58;25.80;;;15.13;;
23222;SDS011;11780;13.904;100.620;2024-01-07T09:31:28;25.85;;;15.23;;
23222;SDS011;11780;13.904;100.620;2024-01-07T09:34:00;29.27;;;17.10;;
23222;SDS011;11780;13.904;100.620;2024-01-07T09:36:31;22.98;;;16.02;;
23222;SDS011;11780;13.904;100.620;2024-01-07T09:39:03;24.27;;;16.38;;
23222;SDS011;11780;13.904;100.620;2024-01-07T09:41:35;22.70;;;15.18;;
23222;SDS011;11780;13.904;100.620;2024-01-07T09:44:07;24.80;;;15.10;;
23222;SDS011;11780;13.904;100.620;2024-01-07T09:46:38;25.58;;;14.60;;
23222;SDS011;11780;13.904;100.620;2024-01-07T09:49:11;27.20;;;14.23;;
23222;SDS011;11780;13.904;100.620;2024-01-07T09:51:42;23.60;;;14.48;;
23222;SDS011;11780;13.904;100.620;2024-01-07T09:54:16;18.15;;;13.85;;
23222;SDS011;11780;13.904;100.620;2024-01-07T09:56:55;22.63;;;13.75;;
23222;SDS011;11780;13.904;100.620;2024-01-07T09:59:30;19.83;;;12.75;;
23222;SDS011;11780;13.904;100.620;2024-01-07T10:02:01;18.63;;;13.03;;
23222;SDS011;11780;13.904;100.620;2024-01-07T10:04:32;56.00;;;27.50;;
23222;SDS011;11780;13.904;100.620;2024-01-07T10:07:03;58.13;;;27.45;;
23222;SDS011;11780;13.904;100.620;2024-01-07T10:09:33;53.92;;;26.30;;
23222;SDS011;11780;13.904;100.620;2024-01-07T10:12:04;45.97;;;23.97;;
23222;SDS011;11780;13.904;100.620;2024-01-07T10:14:35;40.72;;;22.08;;
23222;SDS011;11780;13.904;100.620;2024-01-07T10:17:15;37.53;;;22.00;;
23222;SDS011;11780;13.904;100.620;2024-01-07T10:19:50;33.58;;;19.02;;
23222;SDS011;11780;13.904;100.620;2024-01-07T10:22:20;39.17;;;20.80;;
23222;SDS011;11780;13.904;100.620;2024-01-07T10:24:51;28.73;;;16.93;;
23222;SDS011;11780;13.904;100.620;2024-01-07T10:27:22;30.87;;;17.07;;
23222;SDS011;11780;13.904;100.620;2024-01-07T10:29:53;25.27;;;15.57;;
23222;SDS011;11780;13.904;100.620;2024-01-07T10:32:24;28.90;;;16.75;;
23222;SDS011;11780;13.904;100.620;2024-01-07T10:34:57;21.70;;;15.70;;
23222;SDS011;11780;13.904;100.620;2024-01-07T10:37:36;24.52;;;15.30;;
23222;SDS011;11780;13.904;100.620;2024-01-07T10:40:07;34.67;;;15.67;;
23222;SDS011;11780;13.904;100.620;2024-01-07T10:42:41;21.33;;;14.50;;
23222;SDS011;11780;13.904;100.620;2024-01-07T10:45:15;20.52;;;14.10;;
23222;SDS011;11780;13.904;100.620;2024-01-07T10:47:48;18.70;;;14.07;;
23222;SDS011;11780;13.904;100.620;2024-01-07T10:50:22;20.17;;;13.15;;
23222;SDS011;11780;13.904;100.620;2024-01-07T10:52:57;19.60;;;13.48;;
23222;SDS011;11780;13.904;100.620;2024-01-07T10:55:34;23.05;;;13.85;;
23222;SDS011;11780;13.904;100.620;2024-01-07T10:58:06;22.90;;;14.23;;
23222;SDS011;11780;13.904;100.620;2024-01-07T11:00:37;19.27;;;12.43;;
23222;SDS011;11780;13.904;100.620;2024-01-07T11:03:14;19.98;;;13.30;;
23222;SDS011;11780;13.904;100.620;2024-01-07T11:06:09;17.67;;;12.60;;
23222;SDS011;11780;13.904;100.620;2024-01-07T11:11:38;17.85;;;12.73;;
23222;SDS011;11780;13.904;100.620;2024-01-07T11:17:08;21.08;;;12.48;;
23222;SDS011;11780;13.904;100.620;2024-01-07T11:19:49;22.15;;;12.70;;
23222;SDS011;11780;13.904;100.620;2024-01-07T11:22:27;18.38;;;13.15;;
23222;SDS011;11780;13.904;100.620;2024-01-07T11:24:59;19.70;;;12.88;;
23222;SDS011;11780;13.904;100.620;2024-01-07T11:27:30;17.33;;;12.40;;
23222;SDS011;11780;13.904;100.620;2024-01-07T11:32:47;18.83;;;14.27;;
23222;SDS011;11780;13.904;100.620;2024-01-07T11:38:26;21.48;;;15.60;;
23222;SDS011;11780;13.904;100.620;2024-01-07T11:40:57;27.13;;;18.90;;
23222;SDS011;11780;13.904;100.620;2024-01-07T11:43:29;27.55;;;19.08;;
23222;SDS011;11780;13.904;100.620;2024-01-07T11:45:59;24.43;;;17.20;;
23222;SDS011;11780;13.904;100.620;2024-01-07T11:48:30;28.33;;;20.88;;
23222;SDS011;11780;13.904;100.620;2024-01-07T11:51:01;28.57;;;19.23;;
23222;SDS011;11780;13.904;100.620;2024-01-07T11:53:32;30.00;;;18.33;;
23222;SDS011;11780;13.904;100.620;2024-01-07T11:56:03;24.23;;;17.83;;
23222;SDS011;11780;13.904;100.620;2024-01-07T11:58:34;26.75;;;17.67;;
23222;SDS011;11780;13.904;100.620;2024-01-07T12:01:05;23.27;;;17.47;;
23222;SDS011;11780;13.904;100.620;2024-01-07T12:03:35;29.10;;;17.70;;
23222;SDS011;11780;13.904;100.620;2024-01-07T12:06:06;26.00;;;18.95;;
23222;SDS011;11780;13.904;100.620;2024-01-07T12:08:38;23.17;;;17.33;;
23222;SDS011;11780;13.904;100.620;2024-01-07T12:13:43;23.30;;;17.60;;
23222;SDS011;11780;13.904;100.620;2024-01-07T12:16:14;29.92;;;19.27;;
23222;SDS011;11780;13.904;100.620;2024-01-07T12:18:45;29.57;;;20.23;;
23222;SDS011;11780;13.904;100.620;2024-01-07T12:21:19;31.33;;;20.52;;
23222;SDS011;11780;13.904;100.620;2024-01-07T12:23:53;30.38;;;18.40;;
23222;SDS011;11780;13.904;100.620;2024-01-07T12:26:27;24.58;;;18.52;;
23222;SDS011;11780;13.904;100.620;2024-01-07T12:28:58;54.75;;;37.47;;
23222;SDS011;11780;13.904;100.620;2024-01-07T12:31:33;43.42;;;24.48;;
23222;SDS011;11780;13.904;100.620;2024-01-07T12:34:04;38.72;;;23.58;;
23222;SDS011;11780;13.904;100.620;2024-01-07T12:36:35;38.25;;;23.10;;
23222;SDS011;11780;13.904;100.620;2024-01-07T12:39:06;39.33;;;21.63;;
23222;SDS011;11780;13.904;100.620;2024-01-07T12:41:36;40.27;;;25.33;;
23222;SDS011;11780;13.904;100.620;2024-01-07T12:44:07;39.60;;;24.97;;
23222;SDS011;11780;13.904;100.620;2024-01-07T12:46:38;33.80;;;23.95;;
23222;SDS011;11780;13.904;100.620;2024-01-07T12:49:09;37.38;;;25.02;;
23222;SDS011;11780;13.904;100.620;2024-01-07T12:51:39;35.28;;;23.70;;
23222;SDS011;11780;13.904;100.620;2024-01-07T12:54:10;33.80;;;23.13;;
23222;SDS011;11780;13.904;100.620;2024-01-07T12:56:41;35.63;;;24.63;;
23222;SDS011;11780;13.904;100.620;2024-01-07T12:59:11;36.97;;;27.37;;
23222;SDS011;11780;13.904;100.620;2024-01-07T13:01:42;31.40;;;23.77;;
23222;SDS011;11780;13.904;100.620;2024-01-07T13:06:44;40.17;;;26.45;;
23222;SDS011;11780;13.904;100.620;2024-01-07T13:11:45;33.88;;;23.67;;
23222;SDS011;11780;13.904;100.620;2024-01-07T13:14:16;33.08;;;24.45;;
23222;SDS011;11780;13.904;100.620;2024-01-07T13:16:47;35.38;;;24.83;;
23222;SDS011;11780;13.904;100.620;2024-01-07T13:19:18;36.50;;;25.65;;
23222;SDS011;11780;13.904;100.620;2024-01-07T13:21:48;37.67;;;24.97;;
23222;SDS011;11780;13.904;100.620;2024-01-07T13:24:19;37.85;;;24.55;;
23222;SDS011;11780;13.904;100.620;2024-01-07T13:26:50;34.35;;;23.42;;
23222;SDS011;11780;13.904;100.620;2024-01-07T13:29:21;33.40;;;22.92;;
23222;SDS011;11780;13.904;100.620;2024-01-07T13:31:51;33.53;;;22.80;;
23222;SDS011;11780;13.904;100.620;2024-01-07T13:34:22;37.72;;;23.23;;
23222;SDS011;11780;13.904;100.620;2024-01-07T13:36:53;31.90;;;22.38;;
23222;SDS011;11780;13.904;100.620;2024-01-07T13:39:25;33.97;;;23.58;;
23222;SDS011;11780;13.904;100.620;2024-01-07T13:41:56;34.53;;;22.67;;
23222;SDS011;11780;13.904;100.620;2024-01-07T13:44:27;32.95;;;23.17;;
23222;SDS011;11780;13.904;100.620;2024-01-07T13:49:28;31.65;;;23.33;;
23222;SDS011;11780;13.904;100.620;2024-01-07T13:51:59;37.10;;;24.80;;
23222;SDS011;11780;13.904;100.620;2024-01-07T13:54:30;30.85;;;23.45;;
23222;SDS011;11780;13.904;100.620;2024-01-07T13:57:00;33.78;;;22.95;;
23222;SDS011;11780;13.904;100.620;2024-01-07T14:02:02;32.80;;;23.23;;
23222;SDS011;11780;13.904;100.620;2024-01-07T14:04:34;31.38;;;23.88;;
23222;SDS011;11780;13.904;100.620;2024-01-07T14:07:05;31.03;;;23.43;;
23222;SDS011;11780;13.904;100.620;2024-01-07T14:09:36;34.53;;;23.47;;
23222;SDS011;11780;13.904;100.620;2024-01-07T14:12:06;36.43;;;24.90;;
23222;SDS011;11780;13.904;100.620;2024-01-07T14:17:07;32.33;;;25.60;;
23222;SDS011;11780;13.904;100.620;2024-01-07T14:19:38;36.90;;;25.60;;
23222;SDS011;11780;13.904;100.620;2024-01-07T14:22:09;35.75;;;25.52;;
23222;SDS011;11780;13.904;100.620;2024-01-07T14:24:40;34.53;;;25.93;;
23222;SDS011;11780;13.904;100.620;2024-01-07T14:27:10;33.38;;;24.67;;
23222;SDS011;11780;13.904;100.620;2024-01-07T14:29:41;36.85;;;26.45;;
23222;SDS011;11780;13.904;100.620;2024-01-07T14:32:13;41.65;;;26.25;;
23222;SDS011;11780;13.904;100.620;2024-01-07T14:34:43;40.55;;;26.42;;
23222;SDS011;11780;13.904;100.620;2024-01-07T14:37:14;36.17;;;25.73;;
23222;SDS011;11780;13.904;100.620;2024-01-07T14:39:45;36.83;;;26.27;;
23222;SDS011;11780;13.904;100.620;2024-01-07T14:42:15;38.30;;;27.07;;
23222;SDS011;11780;13.904;100.620;2024-01-07T14:44:46;36.70;;;26.73;;
23222;SDS011;11780;13.904;100.620;2024-01-07T14:47:17;40.42;;;28.25;;
23222;SDS011;11780;13.904;100.620;2024-01-07T14:49:48;43.08;;;29.58;;
23222;SDS011;11780;13.904;100.620;2024-01-07T14:52:19;44.63;;;30.20;;
23222;SDS011;11780;13.904;100.620;2024-01-07T14:54:50;42.90;;;29.65;;
23222;SDS011;11780;13.904;100.620;2024-01-07T14:57:21;44.38;;;30.80;;
23222;SDS011;11780;13.904;100.620;2024-01-07T14:59:53;40.07;;;30.87;;
23222;SDS011;11780;13.904;100.620;2024-01-07T15:02:24;40.10;;;28.27;;
23222;SDS011;11780;13.904;100.620;2024-01-07T15:04:54;45.92;;;33.67;;
23222;SDS011;11780;13.904;100.620;2024-01-07T15:07:25;47.47;;;33.63;;
23222;SDS011;11780;13.904;100.620;2024-01-07T15:09:56;41.53;;;31.33;;
23222;SDS011;11780;13.904;100.620;2024-01-07T15:12:28;40.83;;;32.15;;
23222;SDS011;11780;13.904;100.620;2024-01-07T15:15:09;39.47;;;29.63;;
23222;SDS011;11780;13.904;100.620;2024-01-07T15:17:41;43.90;;;31.45;;
23222;SDS011;11780;13.904;100.620;2024-01-07T15:22:44;42.20;;;29.77;;
23222;SDS011;11780;13.904;100.620;2024-01-07T15:25:15;42.25;;;31.35;;
23222;SDS011;11780;13.904;100.620;2024-01-07T15:27:46;45.00;;;32.45;;